sensor_id;sensor_type;location;lat;lon;timestamp;pressure;altitude;pressure_sealevel;temperature;humidity
71107;BME280;58763;47.982;11.516;2024-01-15T00:01:46;92803.59;;;-0.31;96.27
71107;BME280;58763;47.982;11.516;2024-01-15T00:04:12;92795.63;;;-0.31;95.77
71107;BME280;58763;47.982;11.516;2024-01-15T00:06:37;92806.50;;;-0.33;96.01
71107;BME280;58763;47.982;11.516;2024-01-15T00:09:03;92807.81;;;-0.35;96.42
71107;BME280;58763;47.982;11.516;2024-01-15T00:11:28;92817.13;;;-0.33;95.42
71107;BME280;58763;47.982;11.516;2024-01-15T00:13:54;92816.88;;;-0.31;95.39
71107;BME280;58763;47.982;11.516;2024-01-15T00:16:19;92810.91;;;-0.43;95.08
71107;BME280;58763;47.982;11.516;2024-01-15T00:18:45;92809.28;;;-0.44;94.34
71107;BME280;58763;47.982;11.516;2024-01-15T00:21:11;92815.19;;;-0.42;93.65
71107;BME280;58763;47.982;11.516;2024-01-15T00:23:39;92805.06;;;-0.45;92.85
71107;BME280;58763;47.982;11.516;2024-01-15T00:26:07;92803.44;;;-0.46;92.72
71107;BME280;58763;47.982;11.516;2024-01-15T00:28:32;92815.63;;;-0.50;92.04
71107;BME280;58763;47.982;11.516;2024-01-15T00:30:58;92799.16;;;-0.52;91.28
71107;BME280;58763;47.982;11.516;2024-01-15T00:33:24;92819.34;;;-0.51;90.72
71107;BME280;58763;47.982;11.516;2024-01-15T00:35:50;92816.69;;;-0.51;90.66
71107;BME280;58763;47.982;11.516;2024-01-15T00:38:15;92810.47;;;-0.62;90.39
71107;BME280;58763;47.982;11.516;2024-01-15T00:40:41;92803.81;;;-0.64;90.43
71107;BME280;58763;47.982;11.516;2024-01-15T00:43:07;92816.28;;;-0.65;90.19
71107;BME280;58763;47.982;11.516;2024-01-15T00:45:33;92825.78;;;-0.69;90.61
71107;BME280;58763;47.982;11.516;2024-01-15T00:47:58;92822.28;;;-0.75;90.24
71107;BME280;58763;47.982;11.516;2024-01-15T00:50:26;92833.97;;;-0.76;90.33
71107;BME280;58763;47.982;11.516;2024-01-15T00:52:52;92824.31;;;-0.82;90.42
71107;BME280;58763;47.982;11.516;2024-01-15T00:55:17;92824.31;;;-0.82;90.20
71107;BME280;58763;47.982;11.516;2024-01-15T00:57:43;92824.84;;;-0.85;90.52
71107;BME280;58763;47.982;11.516;2024-01-15T01:00:08;92826.13;;;-0.87;90.32
71107;BME280;58763;47.982;11.516;2024-01-15T01:02:34;92832.69;;;-0.95;90.41
71107;BME280;58763;47.982;11.516;2024-01-15T01:05:00;92824.72;;;-0.95;90.61
71107;BME280;58763;47.982;11.516;2024-01-15T01:07:25;92829.41;;;-1.02;90.55
71107;BME280;58763;47.982;11.516;2024-01-15T01:09:51;92828.31;;;-1.06;90.21
71107;BME280;58763;47.982;11.516;2024-01-15T01:12:17;92831.91;;;-1.17;90.53
71107;BME280;58763;47.982;11.516;2024-01-15T01:14:42;92826.28;;;-1.20;90.19
71107;BME280;58763;47.982;11.516;2024-01-15T01:17:08;92828.38;;;-1.22;90.32
71107;BME280;58763;47.982;11.516;2024-01-15T01:19:33;92832.81;;;-1.28;90.82
71107;BME280;58763;47.982;11.516;2024-01-15T01:21:59;92824.31;;;-1.30;91.05
71107;BME280;58763;47.982;11.516;2024-01-15T01:24:24;92835.91;;;-1.36;91.81
71107;BME280;58763;47.982;11.516;2024-01-15T01:26:49;92831.78;;;-1.27;91.94
71107;BME280;58763;47.982;11.516;2024-01-15T01:29:15;92850.59;;;-1.28;92.01
71107;BME280;58763;47.982;11.516;2024-01-15T01:31:44;92847.88;;;-1.33;92.45
71107;BME280;58763;47.982;11.516;2024-01-15T01:34:13;92857.47;;;-1.27;91.95
71107;BME280;58763;47.982;11.516;2024-01-15T01:36:39;92861.22;;;-1.45;92.31
71107;BME280;58763;47.982;11.516;2024-01-15T01:39:04;92862.00;;;-1.66;94.20
71107;BME280;58763;47.982;11.516;2024-01-15T01:41:31;92872.03;;;-1.68;94.11
71107;BME280;58763;47.982;11.516;2024-01-15T01:43:57;92875.66;;;-1.74;94.66
71107;BME280;58763;47.982;11.516;2024-01-15T01:46:23;92880.72;;;-1.89;94.53
71107;BME280;58763;47.982;11.516;2024-01-15T01:48:49;92882.97;;;-1.98;94.08
71107;BME280;58763;47.982;11.516;2024-01-15T01:51:15;92880.72;;;-1.89;93.98
71107;BME280;58763;47.982;11.516;2024-01-15T01:53:41;92877.66;;;-1.81;93.48
71107;BME280;58763;47.982;11.516;2024-01-15T01:56:07;92874.94;;;-1.86;93.53
71107;BME280;58763;47.982;11.516;2024-01-15T01:58:33;92874.44;;;-1.83;93.64
71107;BME280;58763;47.982;11.516;2024-01-15T02:00:59;92888.50;;;-1.99;92.80
71107;BME280;58763;47.982;11.516;2024-01-15T02:03:26;92885.59;;;-1.98;93.32
71107;BME280;58763;47.982;11.516;2024-01-15T02:05:56;92878.16;;;-2.18;91.47
71107;BME280;58763;47.982;11.516;2024-01-15T02:08:22;92878.84;;;-2.39;91.60
71107;BME280;58763;47.982;11.516;2024-01-15T02:10:47;92891.09;;;-2.49;92.64
71107;BME280;58763;47.982;11.516;2024-01-15T02:13:13;92888.84;;;-2.57;92.55
71107;BME280;58763;47.982;11.516;2024-01-15T02:15:39;92891.84;;;-2.65;93.11
71107;BME280;58763;47.982;11.516;2024-01-15T02:18:06;92897.50;;;-2.62;92.23
71107;BME280;58763;47.982;11.516;2024-01-15T02:20:35;92898.31;;;-2.61;92.26
71107;BME280;58763;47.982;11.516;2024-01-15T02:23:11;92900.31;;;-2.52;91.57
71107;BME280;58763;47.982;11.516;2024-01-15T02:25:38;92904.22;;;-2.54;90.60
71107;BME280;58763;47.982;11.516;2024-01-15T02:28:06;92924.00;;;-2.73;91.81
71107;BME280;58763;47.982;11.516;2024-01-15T02:30:36;92918.63;;;-2.78;91.42
71107;BME280;58763;47.982;11.516;2024-01-15T02:33:03;92932.34;;;-2.93;91.84
71107;BME280;58763;47.982;11.516;2024-01-15T02:35:29;92920.47;;;-2.91;92.10
71107;BME280;58763;47.982;11.516;2024-01-15T02:37:54;92924.16;;;-2.92;91.30
71107;BME280;58763;47.982;11.516;2024-01-15T02:40:20;92911.41;;;-2.95;90.51
71107;BME280;58763;47.982;11.516;2024-01-15T02:42:45;92927.28;;;-2.95;89.75
71107;BME280;58763;47.982;11.516;2024-01-15T02:45:10;92924.84;;;-2.96;88.97
71107;BME280;58763;47.982;11.516;2024-01-15T02:47:36;92923.47;;;-2.99;89.07
71107;BME280;58763;47.982;11.516;2024-01-15T02:50:01;92934.88;;;-2.98;88.49
71107;BME280;58763;47.982;11.516;2024-01-15T02:52:27;92926.94;;;-2.98;88.23
71107;BME280;58763;47.982;11.516;2024-01-15T02:54:53;92914.28;;;-2.96;87.46
71107;BME280;58763;47.982;11.516;2024-01-15T02:57:18;92915.09;;;-2.96;88.35
71107;BME280;58763;47.982;11.516;2024-01-15T02:59:44;92922.69;;;-2.99;88.10
71107;BME280;58763;47.982;11.516;2024-01-15T03:02:09;92918.69;;;-3.02;88.60
71107;BME280;58763;47.982;11.516;2024-01-15T03:04:34;92926.81;;;-3.03;87.84
71107;BME280;58763;47.982;11.516;2024-01-15T03:07:01;92929.72;;;-3.05;88.09
71107;BME280;58763;47.982;11.516;2024-01-15T03:09:26;92928.44;;;-3.02;87.84
71107;BME280;58763;47.982;11.516;2024-01-15T03:11:52;92931.66;;;-3.00;87.49
71107;BME280;58763;47.982;11.516;2024-01-15T03:14:17;92940.28;;;-3.05;88.01
71107;BME280;58763;47.982;11.516;2024-01-15T03:16:43;92937.53;;;-3.10;87.51
71107;BME280;58763;47.982;11.516;2024-01-15T03:19:09;92931.38;;;-3.15;88.00
71107;BME280;58763;47.982;11.516;2024-01-15T03:21:34;92928.22;;;-3.12;88.33
71107;BME280;58763;47.982;11.516;2024-01-15T03:24:00;92927.09;;;-3.16;88.21
71107;BME280;58763;47.982;11.516;2024-01-15T03:26:25;92929.50;;;-3.15;88.06
71107;BME280;58763;47.982;11.516;2024-01-15T03:28:51;92927.44;;;-3.13;87.11
71107;BME280;58763;47.982;11.516;2024-01-15T03:31:17;92932.03;;;-3.08;87.09
71107;BME280;58763;47.982;11.516;2024-01-15T03:33:42;92932.50;;;-3.11;86.78
71107;BME280;58763;47.982;11.516;2024-01-15T03:36:08;92935.03;;;-3.16;86.52
71107;BME280;58763;47.982;11.516;2024-01-15T03:38:34;92932.94;;;-3.14;87.01
71107;BME280;58763;47.982;11.516;2024-01-15T03:40:59;92931.56;;;-3.17;86.64
71107;BME280;58763;47.982;11.516;2024-01-15T03:43:26;92939.88;;;-3.13;85.56
71107;BME280;58763;47.982;11.516;2024-01-15T03:45:52;92927.44;;;-3.13;85.29
71107;BME280;58763;47.982;11.516;2024-01-15T03:48:17;92924.22;;;-3.15;84.35
71107;BME280;58763;47.982;11.516;2024-01-15T03:50:43;92915.56;;;-3.10;84.81
71107;BME280;58763;47.982;11.516;2024-01-15T03:53:08;92912.72;;;-3.09;84.89
71107;BME280;58763;47.982;11.516;2024-01-15T03:55:34;92916.06;;;-3.13;84.38
71107;BME280;58763;47.982;11.516;2024-01-15T03:58:00;92917.44;;;-3.11;83.91
71107;BME280;58763;47.982;11.516;2024-01-15T04:00:25;92912.84;;;-3.15;84.27
71107;BME280;58763;47.982;11.516;2024-01-15T04:02:50;92910.78;;;-3.13;84.04
71107;BME280;58763;47.982;11.516;2024-01-15T04:05:16;92905.50;;;-3.13;83.26
71107;BME280;58763;47.982;11.516;2024-01-15T04:07:42;92900.31;;;-3.08;83.19
71107;BME280;58763;47.982;11.516;2024-01-15T04:10:07;92900.06;;;-3.07;82.76
71107;BME280;58763;47.982;11.516;2024-01-15T04:12:33;92898.22;;;-3.06;82.73
71107;BME280;58763;47.982;11.516;2024-01-15T04:14:59;92898.94;;;-3.11;82.97
71107;BME280;58763;47.982;11.516;2024-01-15T04:17:24;92898.94;;;-3.11;82.72
71107;BME280;58763;47.982;11.516;2024-01-15T04:19:49;92894.22;;;-3.09;82.41
71107;BME280;58763;47.982;11.516;2024-01-15T04:22:15;92898.94;;;-3.11;82.57
71107;BME280;58763;47.982;11.516;2024-01-15T04:24:41;92891.31;;;-3.07;83.39
71107;BME280;58763;47.982;11.516;2024-01-15T04:27:06;92889.63;;;-3.13;82.94
71107;BME280;58763;47.982;11.516;2024-01-15T04:29:32;92880.31;;;-3.16;83.31
71107;BME280;58763;47.982;11.516;2024-01-15T04:31:58;92900.78;;;-3.11;82.08
71107;BME280;58763;47.982;11.516;2024-01-15T04:34:23;92894.69;;;-3.12;82.62
71107;BME280;58763;47.982;11.516;2024-01-15T04:36:49;92881.81;;;-3.08;83.33
71107;BME280;58763;47.982;11.516;2024-01-15T04:39:14;92890.75;;;-3.09;83.07
71107;BME280;58763;47.982;11.516;2024-01-15T04:41:40;92899.25;;;-3.07;82.16
71107;BME280;58763;47.982;11.516;2024-01-15T04:44:05;92898.22;;;-3.06;82.28
71107;BME280;58763;47.982;11.516;2024-01-15T04:46:31;92902.97;;;-3.08;82.44
71107;BME280;58763;47.982;11.516;2024-01-15T04:48:56;92896.06;;;-3.09;81.96
71107;BME280;58763;47.982;11.516;2024-01-15T04:51:22;92897.88;;;-3.10;82.39
71107;BME280;58763;47.982;11.516;2024-01-15T04:53:48;92893.41;;;-3.09;81.96
71107;BME280;58763;47.982;11.516;2024-01-15T04:56:13;92888.94;;;-3.09;81.41
71107;BME280;58763;47.982;11.516;2024-01-15T04:58:39;92894.78;;;-3.07;82.19
71107;BME280;58763;47.982;11.516;2024-01-15T05:01:04;92897.66;;;-3.08;81.35
71107;BME280;58763;47.982;11.516;2024-01-15T05:03:31;92894.22;;;-3.09;81.84
71107;BME280;58763;47.982;11.516;2024-01-15T05:05:56;92899.81;;;-3.05;81.72
71107;BME280;58763;47.982;11.516;2024-01-15T05:08:22;92896.63;;;-3.07;81.47
71107;BME280;58763;47.982;11.516;2024-01-15T05:10:47;92897.19;;;-3.05;81.84
71107;BME280;58763;47.982;11.516;2024-01-15T05:13:13;92894.44;;;-3.10;80.92
71107;BME280;58763;47.982;11.516;2024-01-15T05:15:39;92897.78;;;-3.15;81.78
71107;BME280;58763;47.982;11.516;2024-01-15T05:18:04;92902.50;;;-3.17;81.85
71107;BME280;58763;47.982;11.516;2024-01-15T05:20:30;92895.47;;;-3.11;82.30
71107;BME280;58763;47.982;11.516;2024-01-15T05:22:56;92894.09;;;-3.14;81.80
71107;BME280;58763;47.982;11.516;2024-01-15T05:25:21;92895.38;;;-3.16;82.28
71107;BME280;58763;47.982;11.516;2024-01-15T05:27:48;92891.13;;;-3.17;81.92
71107;BME280;58763;47.982;11.516;2024-01-15T05:30:13;92891.72;;;-3.15;81.99
71107;BME280;58763;47.982;11.516;2024-01-15T05:32:39;92890.09;;;-3.16;82.49
71107;BME280;58763;47.982;11.516;2024-01-15T05:35:05;92900.09;;;-3.18;82.07
71107;BME280;58763;47.982;11.516;2024-01-15T05:37:30;92902.28;;;-3.15;81.82
71107;BME280;58763;47.982;11.516;2024-01-15T05:40:02;92898.94;;;-3.11;81.76
71107;BME280;58763;47.982;11.516;2024-01-15T05:42:29;92907.19;;;-3.07;82.41
71107;BME280;58763;47.982;11.516;2024-01-15T05:44:57;92888.69;;;-3.07;82.11
71107;BME280;58763;47.982;11.516;2024-01-15T05:47:24;92894.78;;;-3.07;81.92
71107;BME280;58763;47.982;11.516;2024-01-15T05:49:50;92896.28;;;-3.11;81.77
71107;BME280;58763;47.982;11.516;2024-01-15T05:52:15;92896.28;;;-3.11;82.05
71107;BME280;58763;47.982;11.516;2024-01-15T05:54:41;92894.31;;;-3.04;81.52
71107;BME280;58763;47.982;11.516;2024-01-15T05:57:07;92890.09;;;-3.16;82.27
71107;BME280;58763;47.982;11.516;2024-01-15T05:59:33;92898.25;;;-3.18;82.90
71107;BME280;58763;47.982;11.516;2024-01-15T06:02:01;92898.97;;;-3.22;81.79
71107;BME280;58763;47.982;11.516;2024-01-15T06:04:27;92902.28;;;-3.15;82.66
71107;BME280;58763;47.982;11.516;2024-01-15T06:06:52;92898.97;;;-3.22;82.84
71107;BME280;58763;47.982;11.516;2024-01-15T06:09:17;92900.00;;;-3.23;83.03
71107;BME280;58763;47.982;11.516;2024-01-15T06:11:43;92898.38;;;-3.24;82.30
71107;BME280;58763;47.982;11.516;2024-01-15T06:14:08;92895.41;;;-3.28;83.35
71107;BME280;58763;47.982;11.516;2024-01-15T06:16:34;92896.88;;;-3.20;83.06
71107;BME280;58763;47.982;11.516;2024-01-15T06:19:00;92890.34;;;-3.18;82.58
71107;BME280;58763;47.982;11.516;2024-01-15T06:21:25;92903.19;;;-3.21;83.05
71107;BME280;58763;47.982;11.516;2024-01-15T06:23:50;92902.75;;;-3.18;82.29
71107;BME280;58763;47.982;11.516;2024-01-15T06:26:16;92905.03;;;-3.22;81.96
71107;BME280;58763;47.982;11.516;2024-01-15T06:28:41;92905.13;;;-3.17;82.05
71107;BME280;58763;47.982;11.516;2024-01-15T06:31:07;92909.94;;;-3.02;82.54
71107;BME280;58763;47.982;11.516;2024-01-15T06:33:33;92904.66;;;-3.02;82.14
71107;BME280;58763;47.982;11.516;2024-01-15T06:35:58;92904.34;;;-3.06;81.99
71107;BME280;58763;47.982;11.516;2024-01-15T06:38:24;92889.88;;;-2.87;81.34
71107;BME280;58763;47.982;11.516;2024-01-15T06:40:51;92894.13;;;-2.86;81.37
71107;BME280;58763;47.982;11.516;2024-01-15T06:43:17;92888.88;;;-2.97;81.80
71107;BME280;58763;47.982;11.516;2024-01-15T06:45:46;92897.88;;;-3.10;82.72
71107;BME280;58763;47.982;11.516;2024-01-15T06:48:12;92890.09;;;-3.16;82.47
71107;BME280;58763;47.982;11.516;2024-01-15T06:50:40;92894.81;;;-3.18;83.39
71107;BME280;58763;47.982;11.516;2024-01-15T06:53:06;92897.56;;;-3.13;83.19
71107;BME280;58763;47.982;11.516;2024-01-15T06:55:31;92893.28;;;-3.14;83.70
71107;BME280;58763;47.982;11.516;2024-01-15T06:57:57;92898.13;;;-3.11;83.72
71107;BME280;58763;47.982;11.516;2024-01-15T07:00:23;92894.34;;;-3.15;83.65
71107;BME280;58763;47.982;11.516;2024-01-15T07:02:49;92891.13;;;-3.17;84.00
71107;BME280;58763;47.982;11.516;2024-01-15T07:05:15;92889.13;;;-3.10;84.13
71107;BME280;58763;47.982;11.516;2024-01-15T07:07:40;92897.56;;;-3.13;84.35
71107;BME280;58763;47.982;11.516;2024-01-15T07:10:06;92889.53;;;-3.18;84.10
71107;BME280;58763;47.982;11.516;2024-01-15T07:12:32;92876.03;;;-3.05;84.17
71107;BME280;58763;47.982;11.516;2024-01-15T07:14:57;92880.59;;;-3.01;84.27
71107;BME280;58763;47.982;11.516;2024-01-15T07:17:23;92882.09;;;-2.93;83.59
71107;BME280;58763;47.982;11.516;2024-01-15T07:19:48;92881.56;;;-2.78;83.66
71107;BME280;58763;47.982;11.516;2024-01-15T07:22:14;92886.53;;;-2.82;83.70
71107;BME280;58763;47.982;11.516;2024-01-15T07:24:43;92888.28;;;-2.59;83.00
71107;BME280;58763;47.982;11.516;2024-01-15T07:27:09;92901.97;;;-2.62;82.71
71107;BME280;58763;47.982;11.516;2024-01-15T07:29:35;92886.16;;;-2.74;83.06
71107;BME280;58763;47.982;11.516;2024-01-15T07:32:04;92877.03;;;-2.95;84.13
71107;BME280;58763;47.982;11.516;2024-01-15T07:34:30;92883.69;;;-2.92;84.43
71107;BME280;58763;47.982;11.516;2024-01-15T07:36:57;92878.97;;;-2.90;84.15
71107;BME280;58763;47.982;11.516;2024-01-15T07:39:24;92875.97;;;-2.94;84.05
71107;BME280;58763;47.982;11.516;2024-01-15T07:41:53;92884.63;;;-2.98;84.22
71107;BME280;58763;47.982;11.516;2024-01-15T07:44:19;92875.25;;;-3.06;85.28
71107;BME280;58763;47.982;11.516;2024-01-15T07:46:48;92883.41;;;-3.07;85.29
71107;BME280;58763;47.982;11.516;2024-01-15T07:49:13;92882.94;;;-3.04;84.89
71107;BME280;58763;47.982;11.516;2024-01-15T07:51:39;92881.16;;;-2.99;85.13
71107;BME280;58763;47.982;11.516;2024-01-15T07:54:11;92881.41;;;-3.00;84.86
71107;BME280;58763;47.982;11.516;2024-01-15T07:56:59;92877.50;;;-2.98;85.45
71107;BME280;58763;47.982;11.516;2024-01-15T07:59:26;92869.22;;;-2.90;84.69
71107;BME280;58763;47.982;11.516;2024-01-15T08:01:52;92864.34;;;-2.81;84.86
71107;BME280;58763;47.982;11.516;2024-01-15T08:04:19;92856.88;;;-2.84;85.17
71107;BME280;58763;47.982;11.516;2024-01-15T08:06:45;92873.22;;;-2.87;85.57
71107;BME280;58763;47.982;11.516;2024-01-15T08:09:12;92866.88;;;-2.86;85.08
71107;BME280;58763;47.982;11.516;2024-01-15T08:11:42;92870.34;;;-2.86;85.21
71107;BME280;58763;47.982;11.516;2024-01-15T08:14:08;92870.78;;;-2.89;86.14
71107;BME280;58763;47.982;11.516;2024-01-15T08:16:35;92861.69;;;-2.81;86.31
71107;BME280;58763;47.982;11.516;2024-01-15T08:19:01;92863.28;;;-2.80;85.54
71107;BME280;58763;47.982;11.516;2024-01-15T08:21:27;92855.44;;;-2.75;85.40
71107;BME280;58763;47.982;11.516;2024-01-15T08:24:00;92858.78;;;-2.80;86.05
71107;BME280;58763;47.982;11.516;2024-01-15T08:26:26;92845.91;;;-2.76;85.43
71107;BME280;58763;47.982;11.516;2024-01-15T08:28:51;92857.06;;;-2.74;85.35
71107;BME280;58763;47.982;11.516;2024-01-15T08:31:17;92850.50;;;-2.71;85.17
71107;BME280;58763;47.982;11.516;2024-01-15T08:33:43;92855.78;;;-2.71;85.34
71107;BME280;58763;47.982;11.516;2024-01-15T08:36:12;92865.56;;;-2.72;86.32
71107;BME280;58763;47.982;11.516;2024-01-15T08:38:40;92865.75;;;-2.62;85.56
71107;BME280;58763;47.982;11.516;2024-01-15T08:41:06;92859.09;;;-2.64;85.88
71107;BME280;58763;47.982;11.516;2024-01-15T08:43:34;92862.44;;;-2.69;86.44
71107;BME280;58763;47.982;11.516;2024-01-15T08:46:00;92867.03;;;-2.64;86.73
71107;BME280;58763;47.982;11.516;2024-01-15T08:48:26;92867.69;;;-2.57;86.20
71107;BME280;58763;47.982;11.516;2024-01-15T08:50:54;92873.28;;;-2.54;85.92
71107;BME280;58763;47.982;11.516;2024-01-15T08:53:20;92883.41;;;-2.51;86.18
71107;BME280;58763;47.982;11.516;2024-01-15T08:55:46;92875.38;;;-2.56;86.60
71107;BME280;58763;47.982;11.516;2024-01-15T08:58:13;92885.53;;;-2.64;87.02
71107;BME280;58763;47.982;11.516;2024-01-15T09:00:38;92877.00;;;-2.55;87.43
71107;BME280;58763;47.982;11.516;2024-01-15T09:03:04;92878.50;;;-2.42;87.21
71107;BME280;58763;47.982;11.516;2024-01-15T09:05:30;92857.97;;;-2.52;87.05
71107;BME280;58763;47.982;11.516;2024-01-15T09:07:56;92863.19;;;-2.57;87.33
71107;BME280;58763;47.982;11.516;2024-01-15T09:10:22;92868.31;;;-2.67;87.78
71107;BME280;58763;47.982;11.516;2024-01-15T09:12:47;92860.34;;;-2.67;87.89
71107;BME280;58763;47.982;11.516;2024-01-15T09:15:14;92867.75;;;-2.69;87.51
71107;BME280;58763;47.982;11.516;2024-01-15T09:17:40;92865.81;;;-2.73;86.67
71107;BME280;58763;47.982;11.516;2024-01-15T09:20:06;92869.47;;;-2.74;86.21
71107;BME280;58763;47.982;11.516;2024-01-15T09:22:32;92873.97;;;-2.75;86.52
71107;BME280;58763;47.982;11.516;2024-01-15T09:24:58;92872.94;;;-2.74;85.00
71107;BME280;58763;47.982;11.516;2024-01-15T09:27:24;92879.25;;;-2.75;86.44
71107;BME280;58763;47.982;11.516;2024-01-15T09:29:52;92867.94;;;-2.70;85.28
71107;BME280;58763;47.982;11.516;2024-01-15T09:32:18;92878.31;;;-2.69;84.22
71107;BME280;58763;47.982;11.516;2024-01-15T09:34:45;92880.47;;;-2.66;84.12
71107;BME280;58763;47.982;11.516;2024-01-15T09:37:13;92879.28;;;-2.58;83.30
71107;BME280;58763;47.982;11.516;2024-01-15T09:39:39;92885.28;;;-2.63;83.78
71107;BME280;58763;47.982;11.516;2024-01-15T09:42:05;92861.81;;;-2.59;83.16
71107;BME280;58763;47.982;11.516;2024-01-15T09:44:31;92877.22;;;-2.56;83.15
71107;BME280;58763;47.982;11.516;2024-01-15T09:46:57;92877.00;;;-2.55;83.42
71107;BME280;58763;47.982;11.516;2024-01-15T09:49:23;92878.09;;;-2.51;83.29
71107;BME280;58763;47.982;11.516;2024-01-15T09:51:49;92876.03;;;-2.49;82.81
71107;BME280;58763;47.982;11.516;2024-01-15T09:54:15;92870.72;;;-2.49;82.23
71107;BME280;58763;47.982;11.516;2024-01-15T09:56:51;92872.09;;;-2.46;82.31
71107;BME280;58763;47.982;11.516;2024-01-15T09:59:18;92868.44;;;-2.45;82.26
71107;BME280;58763;47.982;11.516;2024-01-15T10:01:44;92875.56;;;-2.46;82.24
71107;BME280;58763;47.982;11.516;2024-01-15T10:04:11;92874.69;;;-2.35;81.69
71107;BME280;58763;47.982;11.516;2024-01-15T10:06:44;92870.34;;;-2.41;80.85
71107;BME280;58763;47.982;11.516;2024-01-15T10:09:14;92866.75;;;-2.35;81.24
71107;BME280;58763;47.982;11.516;2024-01-15T10:11:43;92854.78;;;-2.37;81.39
71107;BME280;58763;47.982;11.516;2024-01-15T10:14:12;92857.91;;;-2.40;81.58
71107;BME280;58763;47.982;11.516;2024-01-15T10:16:39;92868.50;;;-2.40;81.47
71107;BME280;58763;47.982;11.516;2024-01-15T10:19:05;92849.09;;;-2.46;82.44
71107;BME280;58763;47.982;11.516;2024-01-15T10:21:35;92854.03;;;-2.49;83.06
71107;BME280;58763;47.982;11.516;2024-01-15T10:24:02;92845.31;;;-2.50;82.98
71107;BME280;58763;47.982;11.516;2024-01-15T10:26:31;92847.97;;;-2.50;82.96
71107;BME280;58763;47.982;11.516;2024-01-15T10:29:00;92844.72;;;-2.52;83.73
71107;BME280;58763;47.982;11.516;2024-01-15T10:31:26;92837.50;;;-2.56;83.90
71107;BME280;58763;47.982;11.516;2024-01-15T10:33:52;92842.59;;;-2.55;84.97
71107;BME280;58763;47.982;11.516;2024-01-15T10:36:19;92840.09;;;-2.61;84.59
71107;BME280;58763;47.982;11.516;2024-01-15T10:38:44;92830.38;;;-2.56;85.26
71107;BME280;58763;47.982;11.516;2024-01-15T10:41:10;92833.03;;;-2.56;86.34
71107;BME280;58763;47.982;11.516;2024-01-15T10:43:36;92826.63;;;-2.60;85.34
71107;BME280;58763;47.982;11.516;2024-01-15T10:46:02;92815.63;;;-2.68;87.08
71107;BME280;58763;47.982;11.516;2024-01-15T10:48:28;92809.63;;;-2.47;87.01
71107;BME280;58763;47.982;11.516;2024-01-15T10:50:57;92813.72;;;-2.40;87.16
71107;BME280;58763;47.982;11.516;2024-01-15T10:53:24;92818.53;;;-2.37;87.09
71107;BME280;58763;47.982;11.516;2024-01-15T10:55:54;92821.25;;;-2.48;87.13
71107;BME280;58763;47.982;11.516;2024-01-15T10:58:20;92823.28;;;-2.39;86.92
71107;BME280;58763;47.982;11.516;2024-01-15T11:00:46;92822.81;;;-2.36;86.63
71107;BME280;58763;47.982;11.516;2024-01-15T11:03:12;92825.50;;;-2.31;86.65
71107;BME280;58763;47.982;11.516;2024-01-15T11:05:41;92820.22;;;-2.31;86.89
71107;BME280;58763;47.982;11.516;2024-01-15T11:08:08;92819.09;;;-2.35;87.14
71107;BME280;58763;47.982;11.516;2024-01-15T11:10:40;92819.25;;;-2.41;87.14
71107;BME280;58763;47.982;11.516;2024-01-15T11:13:19;92806.09;;;-2.36;88.32
71107;BME280;58763;47.982;11.516;2024-01-15T11:16:15;92793.91;;;-2.21;88.20
71107;BME280;58763;47.982;11.516;2024-01-15T11:23:52;92796.84;;;-2.00;87.18
71107;BME280;58763;47.982;11.516;2024-01-15T11:26:35;92791.44;;;-1.89;86.99
71107;BME280;58763;47.982;11.516;2024-01-15T11:31:30;92792.53;;;-1.68;87.05
71107;BME280;58763;47.982;11.516;2024-01-15T11:34:15;92787.72;;;-1.71;87.42
71107;BME280;58763;47.982;11.516;2024-01-15T11:41:57;92791.28;;;-1.61;88.09
71107;BME280;58763;47.982;11.516;2024-01-15T11:44:23;92789.03;;;-1.52;87.92
71107;BME280;58763;47.982;11.516;2024-01-15T11:47:00;92777.50;;;-1.41;87.66
71107;BME280;58763;47.982;11.516;2024-01-15T11:52:02;92776.44;;;-1.40;87.66
71107;BME280;58763;47.982;11.516;2024-01-15T11:54:33;92784.97;;;-1.38;87.54
71107;BME280;58763;47.982;11.516;2024-01-15T11:57:04;92776.28;;;-1.33;87.26
71107;BME280;58763;47.982;11.516;2024-01-15T11:59:34;92774.13;;;-1.36;86.26
71107;BME280;58763;47.982;11.516;2024-01-15T12:02:00;92767.25;;;-1.32;85.98
71107;BME280;58763;47.982;11.516;2024-01-15T12:04:27;92756.56;;;-1.16;85.68
71107;BME280;58763;47.982;11.516;2024-01-15T12:06:52;92748.50;;;-1.26;83.81
71107;BME280;58763;47.982;11.516;2024-01-15T12:09:21;92755.81;;;-1.11;83.60
71107;BME280;58763;47.982;11.516;2024-01-15T12:11:53;92768.59;;;-1.08;82.78
71107;BME280;58763;47.982;11.516;2024-01-15T12:14:21;92765.88;;;-1.13;83.33
71107;BME280;58763;47.982;11.516;2024-01-15T12:16:47;92757.53;;;-1.00;83.03
71107;BME280;58763;47.982;11.516;2024-01-15T12:19:14;92756.50;;;-0.99;82.48
71107;BME280;58763;47.982;11.516;2024-01-15T12:21:40;92750.38;;;-1.00;82.53
71107;BME280;58763;47.982;11.516;2024-01-15T12:24:09;92751.28;;;-1.16;81.51
71107;BME280;58763;47.982;11.516;2024-01-15T12:26:34;92742.66;;;-1.28;84.48
71107;BME280;58763;47.982;11.516;2024-01-15T12:29:02;92740.94;;;-1.39;86.31
71107;BME280;58763;47.982;11.516;2024-01-15T12:31:31;92730.53;;;-1.24;85.48
71107;BME280;58763;47.982;11.516;2024-01-15T12:33:57;92735.25;;;-1.26;85.26
71107;BME280;58763;47.982;11.516;2024-01-15T12:36:23;92715.84;;;-1.31;85.17
71107;BME280;58763;47.982;11.516;2024-01-15T12:38:48;92704.50;;;-1.27;86.04
71107;BME280;58763;47.982;11.516;2024-01-15T12:41:14;92701.50;;;-1.35;86.18
71107;BME280;58763;47.982;11.516;2024-01-15T12:43:40;92707.28;;;-1.38;87.25
71107;BME280;58763;47.982;11.516;2024-01-15T12:46:06;92708.53;;;-1.46;87.71
71107;BME280;58763;47.982;11.516;2024-01-15T12:48:31;92702.19;;;-1.45;87.79
71107;BME280;58763;47.982;11.516;2024-01-15T12:50:57;92708.31;;;-1.40;87.51
71107;BME280;58763;47.982;11.516;2024-01-15T12:53:22;92714.75;;;-1.35;87.68
71107;BME280;58763;47.982;11.516;2024-01-15T12:55:48;92709.69;;;-1.37;88.13
71107;BME280;58763;47.982;11.516;2024-01-15T12:58:13;92703.41;;;-1.31;87.26
71107;BME280;58763;47.982;11.516;2024-01-15T13:00:39;92694.44;;;-1.25;87.45
71107;BME280;58763;47.982;11.516;2024-01-15T13:03:05;92691.22;;;-1.27;86.99